createdAt,value
2022-10-25T00:00:47.677Z,1999.90
2022-10-25T00:03:14.261Z,1999.90
2022-10-25T00:05:40.823Z,1999.90
2022-10-25T00:08:07.365Z,1999.90
2022-10-25T00:10:33.923Z,1999.90
2022-10-25T00:13:00.431Z,1999.90
2022-10-25T00:15:27.443Z,1999.90
2022-10-25T00:17:53.937Z,1999.90
2022-10-25T00:20:20.541Z,1999.90
2022-10-25T00:22:47.317Z,1999.90
2022-10-25T00:25:14.004Z,1999.90
2022-10-25T00:27:40.472Z,1999.90
2022-10-25T00:30:07.528Z,1999.90
2022-10-25T00:32:34.593Z,1999.90
2022-10-25T00:35:01.080Z,1999.90
2022-10-25T00:37:27.560Z,1999.90
2022-10-25T00:39:54.022Z,1999.90
2022-10-25T00:42:23.185Z,1999.90
2022-10-25T00:44:56.615Z,1999.90
2022-10-25T00:48:05.875Z,1999.90
2022-10-25T00:50:36.594Z,1999.90
2022-10-25T00:53:06.210Z,1999.90
2022-10-25T00:55:32.714Z,1999.90
2022-10-25T00:58:10.969Z,1999.90
2022-10-25T01:00:37.468Z,1999.90
2022-10-25T01:03:05.290Z,1999.90
2022-10-25T01:05:32.448Z,1999.90
2022-10-25T01:07:58.936Z,1999.90
2022-10-25T01:10:26.056Z,1999.90
2022-10-25T01:12:52.729Z,1999.90
2022-10-25T02:16:11.497Z,1999.90
2022-10-25T02:18:39.954Z,1999.90
2022-10-25T02:21:07.581Z,1999.90
2022-10-25T02:23:37.117Z,1999.90
2022-10-25T02:26:07.812Z,1999.90
2022-10-25T02:28:34.817Z,1999.90
2022-10-25T02:31:01.279Z,1999.90
2022-10-25T02:33:27.760Z,1999.90
2022-10-25T02:36:16.348Z,1999.90
2022-10-25T02:38:43.032Z,1999.90
2022-10-25T02:41:09.517Z,1999.90
2022-10-25T02:43:36.032Z,1999.90
2022-10-25T02:46:09.752Z,1999.90
2022-10-25T02:48:37.439Z,1999.90
2022-10-25T02:51:04.952Z,1999.90
2022-10-25T02:53:31.620Z,1999.90
2022-10-25T02:56:01.665Z,1999.90
2022-10-25T02:58:30.264Z,1999.90
2022-10-25T03:00:59.318Z,1999.90
2022-10-25T03:03:28.362Z,1999.90
2022-10-25T03:05:54.886Z,1999.90
2022-10-25T03:08:21.496Z,1999.90
2022-10-25T03:10:48.156Z,1999.90
2022-10-25T03:13:14.629Z,1999.90
2022-10-25T03:15:41.301Z,1999.90
2022-10-25T03:18:07.795Z,1999.90
2022-10-25T03:20:34.321Z,1999.90
2022-10-25T03:23:00.822Z,1999.90
2022-10-25T03:25:27.450Z,1999.90
2022-10-25T03:27:53.921Z,1999.90
2022-10-25T03:30:20.511Z,1999.90
2022-10-25T03:32:47.238Z,1999.90
2022-10-25T03:35:13.699Z,1999.90
2022-10-25T03:37:40.187Z,1999.90
2022-10-25T03:40:07.249Z,1999.90
2022-10-25T03:42:33.727Z,1999.90
2022-10-25T03:45:00.192Z,1999.90
2022-10-25T03:47:26.671Z,1999.90
2022-10-25T03:49:53.134Z,1999.90
2022-10-25T03:52:19.912Z,1999.90
2022-10-25T03:54:46.563Z,1999.90
2022-10-25T03:57:13.066Z,1999.90
2022-10-25T03:59:39.549Z,1999.90
2022-10-25T04:02:06.050Z,1999.90
2022-10-25T04:04:32.638Z,1999.90
2022-10-25T04:06:59.138Z,1999.90
2022-10-25T04:09:25.627Z,1999.90
2022-10-25T04:11:52.086Z,1999.90
2022-10-25T04:14:18.625Z,1999.90
2022-10-25T04:16:45.109Z,1999.90
2022-10-25T04:19:11.603Z,1999.90
2022-10-25T04:21:38.072Z,1999.90
2022-10-25T04:24:04.730Z,1999.90
2022-10-25T04:26:31.346Z,1999.90
2022-10-25T04:28:57.828Z,1999.90
2022-10-25T04:31:24.322Z,1999.90
2022-10-25T04:33:51.270Z,1999.90
2022-10-25T04:36:17.932Z,1999.90
2022-10-25T04:38:44.382Z,1999.90
2022-10-25T04:41:10.954Z,1999.90
2022-10-25T04:43:37.433Z,1999.90
2022-10-25T04:46:03.909Z,1999.90
2022-10-25T04:48:30.384Z,1999.90
2022-10-25T04:50:59.788Z,1999.90
2022-10-25T04:53:26.338Z,1999.90
2022-10-25T04:55:57.229Z,1999.90
2022-10-25T04:58:28.753Z,1999.90
2022-10-25T05:01:01.868Z,1999.90
2022-10-25T05:03:29.462Z,1999.90
2022-10-25T05:05:55.977Z,1999.90
2022-10-25T05:08:22.444Z,1999.90
2022-10-25T05:10:55.107Z,1999.90
2022-10-25T05:13:21.674Z,1999.90
2022-10-25T05:15:57.594Z,1999.90
2022-10-25T05:18:24.080Z,1999.90
2022-10-25T05:20:59.397Z,1999.90
2022-10-25T05:23:26.290Z,1999.90
2022-10-25T05:26:14.373Z,1999.90
2022-10-25T05:28:42.144Z,1999.90
2022-10-25T05:33:37.428Z,1999.90
2022-10-25T05:36:04.284Z,1999.90
2022-10-25T05:38:34.203Z,1999.90
2022-10-25T05:41:03.524Z,1999.90
2022-10-25T05:43:29.989Z,1999.90
2022-10-25T05:46:02.527Z,1999.90
2022-10-25T05:48:29.019Z,1999.90
2022-10-25T05:51:03.489Z,1999.90
2022-10-25T05:53:51.576Z,1999.90
2022-10-25T05:56:18.719Z,1999.90
2022-10-25T05:58:45.285Z,1999.90
2022-10-25T06:01:13.579Z,1999.90
2022-10-25T06:03:40.193Z,1999.90
2022-10-25T06:06:08.767Z,1999.90
2022-10-25T06:08:35.806Z,1999.90
2022-10-25T06:11:03.498Z,1999.90
2022-10-25T06:13:30.371Z,1999.90
2022-10-25T06:15:56.899Z,1999.90
2022-10-25T06:18:23.518Z,1999.90
2022-10-25T06:20:50.011Z,1999.90
2022-10-25T06:23:16.490Z,1999.90
2022-10-25T06:25:44.200Z,1999.90
2022-10-25T06:28:10.746Z,1999.90
2022-10-25T06:30:37.295Z,1999.90
2022-10-25T06:33:03.840Z,1999.90
2022-10-25T06:35:30.600Z,1999.90
2022-10-25T06:38:03.594Z,1999.90
2022-10-25T06:40:30.117Z,1999.90
2022-10-25T06:42:56.629Z,1999.90
2022-10-25T06:45:24.157Z,1999.90
2022-10-25T06:47:50.670Z,1999.90
2022-10-25T06:50:17.285Z,1999.90
2022-10-25T06:52:43.838Z,1999.90
2022-10-25T06:55:10.449Z,1999.90
2022-10-25T06:57:36.923Z,1999.90
2022-10-25T07:00:03.949Z,1999.90
2022-10-25T07:02:30.578Z,1999.90
2022-10-25T07:04:57.219Z,1999.90
2022-10-25T07:07:23.699Z,1999.90
2022-10-25T07:09:50.357Z,1999.90
2022-10-25T07:12:16.849Z,1999.90
2022-10-25T07:14:43.672Z,1999.90
2022-10-25T07:17:10.146Z,1999.90
2022-10-25T07:19:36.707Z,1999.90
2022-10-25T07:22:03.177Z,1999.90
2022-10-25T07:24:29.709Z,1999.90
2022-10-25T07:26:56.189Z,1999.90
2022-10-25T07:29:22.704Z,1999.90
2022-10-25T07:31:49.199Z,1999.90
2022-10-25T07:34:15.775Z,1999.90
2022-10-25T07:36:42.272Z,1999.90
2022-10-25T07:39:08.839Z,1999.90
2022-10-25T07:41:35.731Z,1999.90
2022-10-25T07:44:03.319Z,1999.90
2022-10-25T07:46:29.817Z,1999.90
2022-10-25T07:48:56.317Z,1999.90
2022-10-25T07:51:22.873Z,1999.90
2022-10-25T07:53:49.926Z,1999.90
2022-10-25T07:56:22.148Z,1999.90
2022-10-25T07:58:50.128Z,1999.90
2022-10-25T08:01:22.100Z,1999.90
2022-10-25T08:03:49.068Z,1999.90
2022-10-25T08:06:15.597Z,1999.90
2022-10-25T08:08:42.087Z,1999.90
2022-10-25T08:11:08.652Z,1999.90
2022-10-25T08:13:36.396Z,1999.90
2022-10-25T08:16:02.919Z,1999.90
2022-10-25T08:18:29.400Z,1999.90
2022-10-25T08:21:02.191Z,1999.90
2022-10-25T08:23:30.676Z,1999.90
2022-10-25T08:25:57.239Z,1999.90
2022-10-25T08:28:23.788Z,1999.90
2022-10-25T08:30:50.269Z,1999.90
2022-10-25T08:33:16.745Z,1999.90
2022-10-25T08:35:43.247Z,1999.90
2022-10-25T08:38:09.739Z,1999.90
2022-10-25T08:40:47.256Z,1999.90
2022-10-25T08:43:20.160Z,1999.90
2022-10-25T08:45:58.440Z,1999.90
2022-10-25T08:48:41.425Z,1999.90
2022-10-25T08:51:27.478Z,1999.90
2022-10-25T08:53:55.251Z,1999.90
2022-10-25T08:56:21.887Z,1999.90
2022-10-25T08:58:54.598Z,1999.90
2022-10-25T09:01:30.142Z,1999.90
2022-10-25T09:03:56.727Z,1999.90
2022-10-25T09:06:43.933Z,1999.90
2022-10-25T09:09:24.888Z,1999.90
2022-10-25T09:11:54.402Z,1999.90
2022-10-25T09:14:47.054Z,1999.90
2022-10-25T09:17:20.168Z,1999.90
2022-10-25T09:19:58.663Z,1999.90
2022-10-25T09:22:52.123Z,1999.90
2022-10-25T09:25:34.440Z,1999.90
2022-10-25T09:28:03.740Z,1999.90
2022-10-25T09:30:31.000Z,1999.90
2022-10-25T09:33:02.046Z,1999.90
2022-10-25T09:35:35.861Z,1999.90
2022-10-25T09:38:07.545Z,1999.90
2022-10-25T09:40:45.193Z,1999.90
2022-10-25T09:46:00.350Z,1999.90
2022-10-25T09:48:47.439Z,1999.90
2022-10-25T09:51:45.194Z,1999.90
2022-10-25T09:54:15.745Z,1999.90
2022-10-25T09:56:42.275Z,1999.90
2022-10-25T09:59:10.588Z,1999.90
2022-10-25T10:01:37.144Z,1999.90
2022-10-25T10:04:13.352Z,1999.90
2022-10-25T10:06:39.885Z,1999.90
2022-10-25T10:09:07.529Z,1999.90
2022-10-25T10:11:34.264Z,1999.90
2022-10-25T10:14:18.810Z,1999.90
2022-10-25T10:16:46.600Z,1999.90
2022-10-25T10:19:13.018Z,1999.90
2022-10-25T10:21:59.976Z,1999.90
2022-10-25T10:24:27.678Z,1999.90
2022-10-25T10:27:01.907Z,1999.90
2022-10-25T10:29:29.483Z,1999.90
2022-10-25T10:32:05.132Z,249.30
2022-10-25T10:34:31.537Z,484.80
2022-10-25T10:37:15.660Z,590.72
2022-10-25T10:39:49.376Z,532.75
2022-10-25T10:42:37.809Z,524.08
2022-10-25T10:45:12.953Z,635.22
2022-10-25T10:47:48.600Z,431.90
2022-10-25T10:50:22.024Z,807.75
2022-10-25T10:52:58.255Z,623.70
2022-10-25T10:55:37.236Z,421.48
2022-10-25T10:58:05.893Z,480.13
2022-10-25T11:00:32.900Z,460.10
2022-10-25T11:02:59.527Z,814.53
2022-10-25T11:05:26.752Z,326.58
2022-10-25T11:08:00.704Z,655.45
2022-10-25T11:10:34.099Z,493.55
2022-10-25T11:13:17.007Z,1999.90
2022-10-25T11:16:00.596Z,1999.90
2022-10-25T11:18:35.779Z,1999.90
2022-10-25T11:21:18.372Z,1999.90
2022-10-25T11:24:01.597Z,1999.90
2022-10-25T11:26:51.067Z,1999.90
2022-10-25T11:30:05.727Z,1999.90
2022-10-25T11:32:56.820Z,1999.90
2022-10-25T11:35:49.195Z,1999.90
2022-10-25T11:38:33.415Z,1999.90
2022-10-25T11:41:35.294Z,1999.90
2022-10-25T11:44:18.341Z,1999.90
2022-10-25T11:46:56.958Z,1999.90
2022-10-25T11:49:40.018Z,1999.90
2022-10-25T11:52:22.002Z,1999.90
2022-10-25T11:55:16.607Z,1999.90
2022-10-25T11:58:22.222Z,1999.90
2022-10-25T12:01:19.906Z,1999.90
2022-10-25T12:04:12.147Z,1999.90
2022-10-25T12:06:43.521Z,1999.90
2022-10-25T12:09:30.133Z,1999.90
2022-10-25T12:12:16.647Z,1999.90
2022-10-25T12:14:45.338Z,1999.90
2022-10-25T12:17:29.698Z,1999.90
2022-10-25T12:19:58.190Z,1999.90
2022-10-25T12:22:27.552Z,1999.90
2022-10-25T12:25:04.679Z,1999.90
2022-10-25T12:27:31.188Z,1999.90
2022-10-25T12:30:05.847Z,1999.90
2022-10-25T12:32:36.092Z,1999.90
